Time;durP1;ratioP1;P1;durP2;ratioP2;P2;SDS_P1;SDS_P2;PMS_P1;PMS_P2;Temp;Humidity;BMP_temperature;BMP_pressure;BME280_temperature;BME280_humidity;BME280_pressure;Samples;Min_cycle;Max_cycle;Signal;HPM_P1;HPM_P2
2021/07/28 00:07:09;;;;;;;18.70;9.73;;;;;;;18.49;70.85;99216.39;532620;1088;117005;-58
2021/07/28 00:17:16;;;;;;;11.50;9.53;;;;;;;18.44;71.14;99217.86;531949;1089;117436;-58
2021/07/28 00:27:22;;;;;;;12.37;9.90;;;;;;;18.34;71.40;99215.33;532575;1090;116568;-58
2021/07/28 00:37:29;;;;;;;9.80;8.80;;;;;;;18.30;71.79;99214.80;531847;1089;116412;-57
2021/07/28 00:47:36;;;;;;;14.50;10.00;;;;;;;18.31;72.10;99200.52;532633;1089;116064;-58
2021/07/28 00:57:43;;;;;;;10.73;9.63;;;;;;;18.31;71.87;99195.21;532657;1088;117516;-58
2021/07/28 01:07:49;;;;;;;15.50;8.93;;;;;;;18.29;71.79;99213.14;531945;1089;117102;-58
2021/07/28 01:17:55;;;;;;;15.43;10.77;;;;;;;18.23;72.02;99199.66;532659;1089;116264;-58
2021/07/28 01:28:02;;;;;;;11.23;8.87;;;;;;;18.14;72.56;99185.50;532604;1089;118128;-58
2021/07/28 01:38:09;;;;;;;11.07;8.93;;;;;;;18.06;73.00;99188.92;531905;1088;116774;-58
2021/07/28 01:48:15;;;;;;;14.23;8.40;;;;;;;17.98;72.91;99184.36;532667;1089;117539;-58
2021/07/28 01:58:21;;;;;;;10.03;9.00;;;;;;;17.93;73.00;99182.17;531906;1089;116525;-57
2021/07/28 02:08:28;;;;;;;14.23;8.83;;;;;;;17.92;72.90;99175.20;532574;1089;117724;-58
2021/07/28 02:18:34;;;;;;;11.90;8.80;;;;;;;17.88;73.12;99188.94;532600;1089;116257;-58
2021/07/28 02:28:41;;;;;;;16.20;9.35;;;;;;;17.80;73.09;99181.76;531897;1089;118771;-59
2021/07/28 02:38:47;;;;;;;10.13;7.30;;;;;;;17.74;73.10;99191.17;532614;1088;116232;-59
2021/07/28 02:48:53;;;;;;;12.40;7.77;;;;;;;17.68;73.36;99190.96;532654;1089;115998;-58
2021/07/28 02:59:00;;;;;;;9.30;8.37;;;;;;;17.64;73.61;99193.94;531915;1088;117037;-58
2021/07/28 03:09:06;;;;;;;12.17;10.73;;;;;;;17.76;73.32;99180.41;532574;1089;116054;-59
2021/07/28 03:19:12;;;;;;;12.20;8.90;;;;;;;17.94;72.86;99188.33;532438;1088;117613;-59
2021/07/28 03:29:22;;;;;;;13.60;9.07;;;;;;;18.22;72.22;99195.34;531902;1088;170388;-59
2021/07/28 03:39:31;;;;;;;13.30;10.20;;;;;;;18.78;71.26;99174.45;532628;1090;116506;-59
2021/07/28 03:49:37;;;;;;;11.30;9.83;;;;;;;19.60;69.88;99179.08;531875;1089;116850;-58
2021/07/28 03:59:43;;;;;;;11.90;8.75;;;;;;;20.69;68.87;99158.31;532644;1089;116500;-58
2021/07/28 04:09:50;;;;;;;10.90;8.17;;;;;;;21.56;66.59;99162.56;532633;1089;117196;-58
2021/07/28 04:19:56;;;;;;;12.37;8.23;;;;;;;24.34;63.88;99159.16;531827;1088;117774;-58
2021/07/28 04:30:04;;;;;;;12.93;9.47;;;;;;;27.53;58.85;99154.77;532638;1090;118091;-58
2021/07/28 04:40:13;;;;;;;11.87;8.73;;;;;;;29.31;52.82;99146.00;532668;1088;116562;-58
2021/07/28 04:50:20;;;;;;;11.07;8.43;;;;;;;27.67;52.46;99152.79;532128;1089;116669;-58
2021/07/28 05:00:26;;;;;;;10.50;9.50;;;;;;;30.95;49.95;99148.13;532617;1089;116473;-58
2021/07/28 05:10:33;;;;;;;10.23;8.53;;;;;;;30.81;46.25;99144.89;531864;1088;117472;-58
2021/07/28 05:20:38;;;;;;;;;;;;;;;36.04;40.50;99127.03;532666;1089;117162;-58
2021/07/28 05:30:44;;;;;;;12.70;8.33;;;;;;;32.68;41.19;99122.08;532829;1089;103934;-58
2021/07/28 05:40:55;;;;;;;9.10;7.03;;;;;;;33.00;41.48;99125.92;531858;1089;117174;-62
2021/07/28 05:51:01;;;;;;;12.90;7.70;;;;;;;34.35;39.14;99113.98;532557;1089;116601;-59
2021/07/28 06:01:08;;;;;;;8.60;7.45;;;;;;;33.83;38.82;99118.38;532574;1089;116718;-59
2021/07/28 06:11:15;;;;;;;9.70;8.33;;;;;;;40.00;36.51;99115.80;531921;1089;116794;-59
2021/07/28 06:21:21;;;;;;;8.00;7.20;;;;;;;46.71;29.47;99102.30;532635;1088;116962;-60
2021/07/28 06:31:27;;;;;;;9.00;7.07;;;;;;;52.54;24.26;99099.62;531888;1088;117364;-58
2021/07/28 06:41:34;;;;;;;9.45;5.68;;;;;;;45.98;24.04;99084.71;532625;1089;115846;-58
2021/07/28 06:51:40;;;;;;;6.90;6.27;;;;;;;41.63;26.68;99072.00;532573;1089;115788;-60
2021/07/28 07:01:47;;;;;;;10.55;6.98;;;;;;;46.33;24.74;99077.80;531868;1088;116279;-60
2021/07/28 07:11:53;;;;;;;8.33;7.23;;;;;;;46.33;23.36;99078.63;532623;1089;116985;-59
2021/07/28 07:22:00;;;;;;;6.78;6.05;;;;;;;52.64;21.00;99081.22;532571;1088;116081;-59
2021/07/28 07:32:07;;;;;;;9.50;8.25;;;;;;;56.53;17.16;99082.46;531900;1088;116082;-59
2021/07/28 07:42:13;;;;;;;13.65;13.05;;;;;;;57.97;14.89;99058.58;532607;1090;116975;-59
2021/07/28 07:52:20;;;;;;;19.28;18.58;;;;;;;58.65;13.51;99055.41;532203;1089;116563;-57
2021/07/28 08:02:27;;;;;;;15.23;14.63;;;;;;;58.70;13.21;99051.27;532529;1089;181405;-59
2021/07/28 08:12:34;;;;;;;5.05;4.65;;;;;;;51.14;14.20;99009.78;532615;1090;116100;-58
2021/07/28 08:22:40;;;;;;;4.15;3.88;;;;;;;45.35;17.46;98998.02;531853;1089;117066;-59
2021/07/28 08:32:47;;;;;;;4.95;4.50;;;;;;;41.43;20.41;99010.83;532637;1089;116333;-58
2021/07/28 08:42:59;;;;;;;5.80;4.25;;;;;;;39.51;22.34;99012.67;532619;1088;116214;-59
2021/07/28 08:53:06;;;;;;;5.10;4.70;;;;;;;38.95;24.00;99014.53;531897;1088;117012;-59
2021/07/28 09:03:13;;;;;;;5.30;4.80;;;;;;;37.03;25.09;99019.81;532599;1088;117229;-58
2021/07/28 09:13:30;;;;;;;6.83;5.80;;;;;;;36.48;26.97;99015.33;532037;1089;116985;-56
2021/07/28 09:23:41;;;;;;;6.70;5.43;;;;;;;36.26;27.47;99016.58;532587;1090;116162;-58
2021/07/28 09:34:10;;;;;;;5.10;4.70;;;;;;;35.67;28.13;99012.77;532568;1089;115843;-58
2021/07/28 09:44:25;;;;;;;6.07;5.07;;;;;;;35.32;28.99;99001.69;531927;1089;116768;-58
2021/07/28 09:54:33;;;;;;;5.17;4.77;;;;;;;35.18;29.58;99002.27;532577;1089;166478;-58
2021/07/28 10:04:46;;;;;;;4.83;4.43;;;;;;;35.09;29.49;98997.64;531913;1088;117056;-58
2021/07/28 10:14:54;;;;;;;5.05;4.65;;;;;;;34.95;29.30;99003.63;532647;1089;115947;-59
2021/07/28 10:25:02;;;;;;;7.00;4.70;;;;;;;35.04;29.20;98985.66;532600;1090;116452;-58
2021/07/28 10:35:29;;;;;;;4.67;3.83;;;;;;;34.79;29.54;98986.47;531866;1089;116722;-59
2021/07/28 10:45:56;;;;;;;4.53;4.23;;;;;;;34.43;29.45;98984.56;532594;1089;116900;-58
2021/07/28 10:56:12;;;;;;;6.70;5.10;;;;;;;34.03;29.95;98969.80;531911;1089;116677;-58
2021/07/28 11:06:21;;;;;;;5.40;4.80;;;;;;;34.18;30.32;98958.94;532593;1090;118089;-58
2021/07/28 11:16:29;;;;;;;5.00;4.60;;;;;;;34.01;30.31;98951.02;531802;1089;116597;-59
2021/07/28 11:26:37;;;;;;;5.60;5.20;;;;;;;33.97;30.18;98949.88;532587;1089;116693;-59
2021/07/28 11:36:47;;;;;;;5.47;4.93;;;;;;;33.97;30.95;98936.26;532552;1089;116760;-59
2021/07/28 11:46:55;;;;;;;5.35;4.68;;;;;;;34.14;30.72;98936.04;531834;1089;118252;-59
2021/07/28 11:57:03;;;;;;;4.70;4.30;;;;;;;34.16;30.18;98936.58;532597;1089;116116;-59
2021/07/28 12:07:14;;;;;;;5.30;4.80;;;;;;;34.16;30.70;98925.69;532585;1089;117853;-58
2021/07/28 12:17:27;;;;;;;5.93;4.90;;;;;;;33.92;30.05;98923.45;532556;1088;116087;-59
2021/07/28 12:27:38;;;;;;;4.70;4.30;;;;;;;33.72;30.30;98920.71;532599;1089;117940;-59
2021/07/28 12:37:44;;;;;;;6.50;5.00;;;;;;;33.57;31.73;98910.59;531876;1088;116704;-58
2021/07/28 12:47:49;;;;;;;;;;;;;;;33.48;31.29;98905.66;532653;1089;115639;-58
2021/07/28 12:57:56;;;;;;;9.85;8.85;;;;;;;33.80;31.77;98910.11;532885;1090;102221;-58
2021/07/28 13:08:04;;;;;;;5.73;4.90;;;;;;;33.68;32.14;98890.48;531835;1089;116249;-58
2021/07/28 13:18:11;;;;;;;4.90;4.33;;;;;;;33.35;31.73;98878.94;532606;1088;116865;-59
2021/07/28 13:28:18;;;;;;;5.73;4.77;;;;;;;33.38;31.23;98881.11;532624;1089;116113;-59
2021/07/28 13:38:24;;;;;;;7.03;6.38;;;;;;;33.25;31.76;98863.41;532615;1089;116857;-59
2021/07/28 13:48:32;;;;;;;4.60;4.00;;;;;;;32.84;32.16;98859.38;532618;1089;116664;-59
2021/07/28 13:58:38;;;;;;;6.80;4.90;;;;;;;32.63;32.31;98842.16;531869;1089;116107;-60
2021/07/28 14:08:45;;;;;;;4.70;4.28;;;;;;;32.65;32.20;98831.84;532601;1089;116131;-59
2021/07/28 14:18:49;;;;;;;;;;;;;;;32.50;34.52;98823.61;532488;1088;117008;-59
2021/07/28 14:28:56;;;;;;;4.10;3.80;;;;;;;32.28;32.88;98809.03;532221;1090;102866;-59
2021/07/28 14:39:03;;;;;;;4.08;3.78;;;;;;;32.25;32.23;98812.27;532545;1089;116480;-59
2021/07/28 14:49:09;;;;;;;4.10;3.80;;;;;;;32.42;32.45;98804.00;532528;1089;117505;-59
2021/07/28 14:59:14;;;;;;;;;;;;;;;32.44;31.94;98806.46;531822;1089;117173;-59
2021/07/28 15:09:21;;;;;;;6.70;3.70;;;;;;;32.75;32.23;98797.66;532841;1089;102847;-59
2021/07/28 15:19:25;;;;;;;;;;;;;;;32.43;32.10;98785.78;531901;1089;116549;-58
2021/07/28 15:29:32;;;;;;;5.50;4.93;;;;;;;31.83;32.68;98766.89;532901;1090;102314;-58
2021/07/28 15:40:08;;;;;;;5.05;4.20;;;;;;;31.33;33.87;98753.41;532593;1088;115733;-59
2021/07/28 15:50:16;;;;;;;6.48;5.18;;;;;;;30.90;35.56;98777.59;531896;1089;117426;-59
2021/07/28 16:00:24;;;;;;;7.90;5.70;;;;;;;30.57;37.10;98771.98;532583;1088;116093;-59
2021/07/28 16:10:30;;;;;;;7.37;6.53;;;;;;;30.17;38.88;98754.92;531900;1089;116609;-58
2021/07/28 16:20:36;;;;;;;6.83;5.98;;;;;;;29.56;41.66;98769.08;532626;1089;116108;-59
2021/07/28 16:30:47;;;;;;;9.23;6.73;;;;;;;29.13;41.99;98797.44;532576;1089;117119;-59
2021/07/28 16:40:54;;;;;;;8.80;4.83;;;;;;;27.85;43.77;98883.31;531897;1089;116490;-58
2021/07/28 16:51:00;;;;;;;4.13;3.43;;;;;;;26.24;46.62;98951.20;532597;1089;116640;-58
2021/07/28 17:01:06;;;;;;;5.63;4.00;;;;;;;24.05;54.81;98903.67;532566;1089;117691;-58
2021/07/28 17:11:13;;;;;;;6.33;4.67;;;;;;;22.35;60.00;98885.00;531944;1090;115917;-58
2021/07/28 17:21:20;;;;;;;7.03;5.00;;;;;;;21.85;60.88;98884.92;532584;1088;115751;-58
2021/07/28 17:31:26;;;;;;;3.90;3.50;;;;;;;21.67;60.90;98907.53;531857;1089;117383;-58
2021/07/28 17:41:33;;;;;;;4.27;3.57;;;;;;;21.54;61.29;98910.02;532520;1088;116741;-59
2021/07/28 17:51:39;;;;;;;3.70;3.40;;;;;;;21.43;62.09;98911.33;532618;1088;116718;-60
2021/07/28 18:01:45;;;;;;;4.83;4.23;;;;;;;21.54;62.78;98916.20;531772;1089;116831;-58
2021/07/28 18:11:52;;;;;;;3.63;3.27;;;;;;;21.69;63.03;98889.46;532609;1089;115863;-58
2021/07/28 18:21:59;;;;;;;4.53;4.13;;;;;;;21.83;63.48;98886.97;521187;1088;116049;-59
2021/07/28 18:32:06;;;;;;;7.33;5.03;;;;;;;21.92;64.07;98907.18;531313;1089;116660;-59
2021/07/28 18:42:13;;;;;;;4.40;4.00;;;;;;;21.96;63.53;98935.20;532610;1089;116718;-59
2021/07/28 18:52:19;;;;;;;5.87;4.37;;;;;;;22.01;62.80;98949.84;532587;1089;116900;-59
2021/07/28 19:02:26;;;;;;;3.60;3.30;;;;;;;21.90;63.04;98967.20;532624;1088;116816;-59
2021/07/28 19:12:33;;;;;;;4.50;4.15;;;;;;;21.87;63.10;98983.59;532648;1090;117501;-60
2021/07/28 19:22:40;;;;;;;4.70;3.90;;;;;;;21.81;63.37;98995.84;531892;1089;117463;-60
2021/07/28 19:32:48;;;;;;;5.90;4.53;;;;;;;21.64;63.74;98988.02;532643;1090;116041;-59
2021/07/28 19:42:56;;;;;;;5.78;5.10;;;;;;;21.63;63.68;98985.52;532610;1089;117397;-58
2021/07/28 19:53:21;;;;;;;6.30;4.07;;;;;;;21.49;64.47;99001.38;532595;1089;116839;-58
2021/07/28 20:03:27;;;;;;;5.83;4.40;;;;;;;21.48;65.67;99005.05;527899;1089;116279;-58
2021/07/28 20:13:34;;;;;;;5.73;5.10;;;;;;;21.49;65.92;99009.38;531897;1089;116307;-58
2021/07/28 20:23:41;;;;;;;6.60;5.03;;;;;;;21.41;66.27;99012.98;532620;1089;115897;-58
2021/07/28 20:33:50;;;;;;;7.70;6.83;;;;;;;21.30;67.35;99034.78;532707;1089;175214;-59
2021/07/28 20:43:57;;;;;;;7.47;5.90;;;;;;;21.20;68.24;99026.20;531859;1089;116716;-57
2021/07/28 20:54:03;;;;;;;7.63;6.43;;;;;;;21.14;67.96;99025.94;532540;1089;116688;-57
2021/07/28 21:04:10;;;;;;;7.03;6.33;;;;;;;21.08;68.08;99023.97;532559;1088;116555;-59
2021/07/28 21:14:17;;;;;;;7.63;5.67;;;;;;;21.07;67.99;99019.66;531874;1088;116501;-59
2021/07/28 21:24:25;;;;;;;6.98;5.80;;;;;;;21.08;68.24;99007.96;532653;1088;115960;-59
2021/07/28 21:34:32;;;;;;;8.67;5.50;;;;;;;21.09;68.12;98996.27;531896;1088;118077;-59
2021/07/28 21:44:43;;;;;;;10.33;5.78;;;;;;;21.08;68.34;98999.14;529654;1089;116165;-57
2021/07/28 21:54:56;;;;;;;6.30;5.17;;;;;;;21.08;68.17;98991.14;532648;1089;116595;-59
2021/07/28 22:05:03;;;;;;;6.07;5.47;;;;;;;21.09;68.46;99001.61;531859;1090;116496;-58
2021/07/28 22:15:11;;;;;;;6.53;5.93;;;;;;;20.88;68.07;99014.80;532596;1090;117756;-59
2021/07/28 22:25:18;;;;;;;5.58;5.08;;;;;;;20.76;68.28;99019.72;532551;1088;115918;-59
2021/07/28 22:35:26;;;;;;;5.83;5.28;;;;;;;20.56;68.38;99034.38;532578;1090;116027;-58
2021/07/28 22:45:34;;;;;;;5.90;5.30;;;;;;;20.44;69.04;99049.12;532626;1089;116621;-58
2021/07/28 22:55:40;;;;;;;5.73;5.23;;;;;;;20.34;69.16;99054.65;531834;1089;115984;-58
2021/07/28 23:16:15;;;;;;;6.03;5.53;;;;;;;20.21;68.95;99073.05;532617;1089;117129;-59
2021/07/28 23:26:22;;;;;;;5.87;5.03;;;;;;;20.16;68.69;99077.08;532643;1089;116266;-59
2021/07/28 23:36:29;;;;;;;7.03;5.23;;;;;;;19.98;69.53;99068.48;532610;1089;116996;-59
2021/07/28 23:46:35;;;;;;;7.13;5.77;;;;;;;19.89;69.53;99063.14;531902;1088;118629;-57
2021/07/28 23:56:45;;;;;;;8.43;6.30;;;;;;;19.88;70.29;99060.67;532610;1089;117362;-59
